createdAt,value
2018-05-06T05:55:34.838Z,7604.00
2018-05-06T05:56:35.239Z,8512.00
2018-05-06T05:58:28.195Z,7832.00
2018-05-06T05:59:27.714Z,7732.00
2018-05-06T06:01:21.188Z,8272.00
2018-05-06T06:02:20.635Z,8824.00
2018-05-06T06:04:15.643Z,9920.00
2018-05-06T06:05:15.175Z,9436.00
2018-05-06T06:07:08.543Z,10028.00
2018-05-06T06:08:08.114Z,10068.00
2018-05-06T06:11:01.851Z,7872.00
2018-05-06T06:12:54.513Z,8404.00
2018-05-06T06:13:54.027Z,8616.00
2018-05-06T06:15:47.471Z,8488.00
2018-05-06T06:16:47.041Z,8008.00
2018-05-06T06:18:40.506Z,13024.00
2018-05-06T06:19:40.051Z,14268.00
2018-05-06T06:21:33.413Z,11436.00
2018-05-06T06:22:32.924Z,10832.00
2018-05-06T06:24:26.430Z,8544.00
2018-05-06T06:25:25.956Z,8656.00
2018-05-06T06:27:20.824Z,8604.00
2018-05-06T06:28:20.879Z,8160.00
2018-05-06T06:30:13.924Z,8188.00
2018-05-06T06:31:14.249Z,8176.00
2018-05-06T06:33:06.735Z,8220.00
2018-05-06T06:34:06.284Z,8240.00
2018-05-06T06:36:00.234Z,8268.00
2018-05-06T06:36:59.730Z,8312.00
2018-05-06T06:38:52.682Z,8384.00
2018-05-06T06:39:52.664Z,8456.00
2018-05-06T06:41:48.265Z,8852.00
2018-05-06T06:44:41.703Z,35520.00
2018-05-06T06:45:40.748Z,54496.00
2018-05-06T06:47:34.231Z,69728.00
2018-05-06T06:48:34.696Z,83872.00
2018-05-06T06:50:27.733Z,94528.00
2018-05-06T06:51:26.772Z,92416.00
2018-05-06T06:53:21.746Z,64544.00
2018-05-06T06:54:21.282Z,57376.00
2018-05-06T06:56:16.397Z,59968.00
2018-05-06T06:57:16.819Z,76480.00
2018-05-06T06:59:09.308Z,75648.00
2018-05-06T07:00:08.856Z,74400.00
2018-05-06T07:02:02.419Z,74016.00
2018-05-06T07:03:01.955Z,75392.00
2018-05-06T07:04:56.040Z,71520.00
2018-05-06T07:05:55.992Z,71008.00
2018-05-06T07:07:51.032Z,76128.00
2018-05-06T07:08:50.494Z,76352.00
2018-05-06T07:10:43.618Z,74976.00
2018-05-06T07:11:44.058Z,74816.00
2018-05-06T07:13:36.703Z,77408.00
2018-05-06T07:14:36.663Z,78624.00
2018-05-06T07:16:30.237Z,83392.00
2018-05-06T07:17:29.313Z,86816.00
2018-05-06T07:19:23.286Z,88288.00
2018-05-06T07:20:22.352Z,84416.00
2018-05-06T07:22:16.600Z,76864.00
2018-05-06T07:23:16.243Z,78560.00
2018-05-06T07:25:09.348Z,78560.00
2018-05-06T07:26:09.834Z,76960.00
2018-05-06T07:28:05.441Z,76672.00
2018-05-06T07:29:05.423Z,75296.00
2018-05-06T07:31:00.022Z,80992.00
2018-05-06T07:31:59.984Z,87584.00
2018-05-06T07:33:53.394Z,89568.00
2018-05-06T07:36:46.594Z,98560.00
2018-05-06T07:37:46.631Z,91904.00
2018-05-06T07:39:51.972Z,82432.00
2018-05-06T07:40:51.796Z,80320.00
2018-05-06T07:42:45.447Z,78880.00
2018-05-06T07:43:44.884Z,79456.00
2018-05-06T07:45:38.057Z,80608.00
2018-05-06T07:46:37.540Z,82848.00
2018-05-06T07:48:31.019Z,92000.00
2018-05-06T07:49:30.593Z,94976.00
2018-05-06T07:51:24.119Z,99360.00
2018-05-06T07:52:24.083Z,103168.00
2018-05-06T07:54:17.326Z,100352.00
2018-05-06T07:55:16.758Z,97952.00
2018-05-06T07:57:11.171Z,95136.00
2018-05-06T07:58:09.990Z,91104.00
2018-05-06T08:00:03.453Z,81952.00
2018-05-06T08:01:03.628Z,86752.00
2018-05-06T08:02:57.117Z,91808.00
2018-05-06T08:03:57.282Z,89152.00
2018-05-06T08:06:02.298Z,87648.00
2018-05-06T08:07:02.282Z,85856.00
2018-05-06T08:08:55.345Z,89056.00
2018-05-06T08:09:55.292Z,90720.00
2018-05-06T08:11:48.374Z,94368.00
2018-05-06T08:12:47.970Z,95840.00
2018-05-06T08:14:41.546Z,100128.00
2018-05-06T08:15:41.021Z,97408.00
2018-05-06T08:17:35.945Z,87968.00
2018-05-06T08:18:35.465Z,82560.00
2018-05-06T08:20:29.937Z,87040.00
2018-05-06T08:21:28.938Z,90208.00
2018-05-06T08:23:23.997Z,95872.00
2018-05-06T08:24:23.552Z,102752.00
2018-05-06T08:26:17.072Z,98912.00
2018-05-06T08:27:16.638Z,95072.00
2018-05-06T08:29:10.058Z,107712.00
2018-05-06T08:30:09.685Z,101088.00
2018-05-06T08:32:03.233Z,98080.00
2018-05-06T08:33:03.149Z,92448.00
2018-05-06T08:34:56.569Z,96288.00
2018-05-06T08:35:56.221Z,95456.00
2018-05-06T08:37:51.095Z,89312.00
2018-05-06T08:38:50.673Z,84000.00
2018-05-06T08:40:44.101Z,95936.00
2018-05-06T08:41:44.152Z,99072.00
2018-05-06T08:43:37.256Z,91328.00
2018-05-06T08:44:36.803Z,92704.00
2018-05-06T08:46:30.292Z,100608.00
2018-05-06T08:47:30.246Z,102112.00
2018-05-06T08:49:23.348Z,103200.00
2018-05-06T08:50:23.325Z,99680.00
2018-05-06T08:52:16.391Z,96672.00
2018-05-06T08:53:15.983Z,101600.00
2018-05-06T08:55:09.552Z,97568.00
2018-05-06T08:56:09.358Z,95968.00
2018-05-06T08:58:02.560Z,92576.00
2018-05-06T08:59:02.104Z,89792.00
2018-05-06T09:00:55.562Z,105184.00
2018-05-06T09:01:55.160Z,98464.00
2018-05-06T09:03:48.638Z,103616.00
2018-05-06T09:04:48.204Z,107040.00
2018-05-06T09:06:41.755Z,110624.00
2018-05-06T09:07:41.271Z,121920.00
2018-05-06T09:09:34.738Z,138304.00
2018-05-06T09:10:34.752Z,133600.00
2018-05-06T09:12:27.890Z,107552.00
2018-05-06T09:13:27.859Z,102784.00
2018-05-06T09:15:20.847Z,129600.00
2018-05-06T09:16:20.721Z,126464.00
2018-05-06T09:18:13.953Z,119488.00
2018-05-06T09:19:13.824Z,120448.00
2018-05-06T09:21:07.989Z,116864.00
2018-05-06T09:22:07.389Z,110144.00
2018-05-06T09:24:00.557Z,108512.00
2018-05-06T09:25:00.082Z,108864.00
2018-05-06T09:26:54.977Z,106752.00
2018-05-06T09:27:54.926Z,107680.00
2018-05-06T09:29:48.079Z,121312.00
2018-05-06T09:30:48.081Z,107360.00
2018-05-06T09:32:41.148Z,86176.00
2018-05-06T09:33:41.134Z,87616.00
2018-05-06T09:35:34.214Z,94912.00
2018-05-06T09:36:33.733Z,94784.00
2018-05-06T09:38:27.214Z,108704.00
2018-05-06T09:39:26.839Z,105024.00
2018-05-06T09:41:20.832Z,95104.00
2018-05-06T09:42:20.741Z,104064.00
2018-05-06T09:44:13.852Z,101760.00
2018-05-06T09:45:13.860Z,104000.00
2018-05-06T09:47:06.952Z,101888.00
2018-05-06T09:48:06.576Z,101344.00
2018-05-06T09:50:00.018Z,107168.00
2018-05-06T09:50:59.885Z,113856.00
2018-05-06T09:52:53.016Z,109856.00
2018-05-06T09:53:52.604Z,108608.00
2018-05-06T09:55:45.994Z,103680.00
2018-05-06T09:56:45.576Z,102208.00
2018-05-06T09:58:39.003Z,106784.00
2018-05-06T09:59:38.905Z,120320.00
2018-05-06T10:01:31.994Z,105664.00
2018-05-06T10:02:32.010Z,102368.00
2018-05-06T10:04:25.121Z,100928.00
2018-05-06T10:05:24.634Z,100160.00
2018-05-06T10:07:18.110Z,95680.00
2018-05-06T10:08:17.665Z,104768.00
2018-05-06T10:10:11.083Z,114336.00
2018-05-06T10:11:10.641Z,117952.00
2018-05-06T10:13:16.360Z,111232.00
2018-05-06T10:14:15.873Z,108672.00
2018-05-06T10:16:09.457Z,115680.00
2018-05-06T10:17:08.968Z,114784.00
2018-05-06T10:19:02.422Z,120128.00
2018-05-06T10:20:02.366Z,126336.00
2018-05-06T10:21:55.559Z,119168.00
2018-05-06T10:22:55.029Z,111328.00
2018-05-06T10:24:48.472Z,141600.00
2018-05-06T10:25:48.548Z,119968.00
2018-05-06T10:27:41.687Z,109248.00
2018-05-06T10:28:41.202Z,131200.00
2018-05-06T10:30:34.656Z,128064.00
2018-05-06T10:31:34.218Z,106240.00
2018-05-06T10:33:27.715Z,114976.00
2018-05-06T10:34:27.268Z,125504.00
2018-05-06T10:36:22.201Z,123392.00
2018-05-06T10:37:22.195Z,122112.00
2018-05-06T10:39:15.295Z,139104.00
2018-05-06T10:40:14.792Z,128896.00
2018-05-06T10:42:08.286Z,138048.00
2018-05-06T10:43:07.922Z,132512.00
2018-05-06T10:45:01.331Z,129856.00
2018-05-06T10:46:00.933Z,142240.00
2018-05-06T10:47:54.283Z,108736.00
2018-05-06T10:48:53.912Z,122944.00
2018-05-06T10:50:47.434Z,131552.00
2018-05-06T10:51:47.303Z,142464.00
2018-05-06T10:53:40.464Z,130784.00
2018-05-06T10:54:39.983Z,123552.00
2018-05-06T10:56:33.417Z,105568.00
2018-05-06T10:57:33.744Z,124608.00
2018-05-06T10:59:26.425Z,144000.00
2018-05-06T11:00:26.072Z,136672.00
2018-05-06T11:02:19.534Z,127552.00
2018-05-06T11:03:19.366Z,122016.00
2018-05-06T11:05:13.472Z,127712.00
2018-05-06T11:06:12.605Z,138656.00
2018-05-06T11:08:07.590Z,121408.00
2018-05-06T11:09:07.573Z,126912.00
2018-05-06T11:11:00.504Z,135680.00
2018-05-06T11:12:00.079Z,133216.00
2018-05-06T11:13:53.997Z,120960.00
2018-05-06T11:14:53.619Z,117152.00
2018-05-06T11:16:47.504Z,138688.00
2018-05-06T11:17:47.167Z,113984.00
2018-05-06T11:19:40.543Z,121696.00
2018-05-06T11:20:40.100Z,127712.00
2018-05-06T11:22:35.150Z,113728.00
2018-05-06T11:23:34.742Z,120384.00
2018-05-06T11:25:28.626Z,130432.00
2018-05-06T11:26:28.160Z,123040.00
2018-05-06T11:28:21.595Z,128224.00
2018-05-06T11:29:21.271Z,122048.00
2018-05-06T11:31:14.698Z,126336.00
2018-05-06T11:32:14.319Z,115392.00
2018-05-06T11:34:09.252Z,136736.00
2018-05-06T11:35:08.852Z,136000.00
2018-05-06T11:37:02.365Z,125120.00
2018-05-06T11:38:01.895Z,132864.00
2018-05-06T11:39:55.818Z,152256.00
2018-05-06T11:40:55.420Z,132544.00
2018-05-06T11:42:48.908Z,146720.00
2018-05-06T11:43:48.432Z,147104.00
2018-05-06T11:45:43.367Z,59648.00
2018-05-06T11:46:42.929Z,48288.00
2018-05-06T11:48:36.433Z,55840.00
2018-05-06T11:49:36.012Z,58880.00
2018-05-06T11:51:29.474Z,56544.00
2018-05-06T11:52:29.082Z,57024.00
2018-05-06T11:54:22.919Z,53408.00
2018-05-06T11:55:22.867Z,53600.00
2018-05-06T11:57:17.787Z,50976.00
2018-05-06T11:58:17.775Z,55424.00
2018-05-06T12:00:10.556Z,55584.00
2018-05-06T12:01:10.054Z,57600.00
2018-05-06T12:03:03.497Z,63648.00
2018-05-06T12:04:03.444Z,66432.00
2018-05-06T12:05:56.620Z,73408.00
2018-05-06T12:06:56.155Z,82720.00
2018-05-06T12:08:50.033Z,82976.00
2018-05-06T12:09:49.654Z,75264.00
2018-05-06T12:11:43.149Z,80224.00
2018-05-06T12:12:43.061Z,82528.00
2018-05-06T12:14:36.681Z,92736.00
2018-05-06T12:15:36.273Z,104064.00
2018-05-06T12:17:29.891Z,93408.00
2018-05-06T12:18:29.372Z,95008.00
2018-05-06T12:20:22.799Z,92864.00
2018-05-06T12:21:22.730Z,89216.00
2018-05-06T12:23:15.873Z,96704.00
2018-05-06T12:24:15.472Z,91648.00
2018-05-06T12:26:08.910Z,101728.00
2018-05-06T12:27:08.895Z,103392.00
2018-05-06T12:29:02.545Z,87200.00
2018-05-06T12:30:02.034Z,91680.00
2018-05-06T12:31:56.980Z,95968.00
2018-05-06T12:32:56.563Z,87296.00
2018-05-06T12:34:50.084Z,97632.00
2018-05-06T12:35:49.931Z,97504.00
2018-05-06T12:37:43.092Z,97120.00
2018-05-06T12:38:43.061Z,87168.00
2018-05-06T12:40:36.184Z,90432.00
2018-05-06T12:41:35.712Z,92704.00
2018-05-06T12:43:29.225Z,85056.00
2018-05-06T12:44:29.155Z,83712.00
2018-05-06T12:46:22.282Z,87808.00
2018-05-06T12:47:21.866Z,93152.00
2018-05-06T12:49:15.291Z,98272.00
2018-05-06T12:50:15.313Z,94560.00
2018-05-06T12:52:08.919Z,113120.00
2018-05-06T12:53:07.933Z,127264.00
2018-05-06T12:55:01.403Z,98112.00
2018-05-06T12:56:01.038Z,95488.00
2018-05-06T12:58:54.077Z,134752.00
2018-05-06T13:00:47.517Z,134496.00
2018-05-06T13:01:47.489Z,114112.00
2018-05-06T13:03:40.672Z,108416.00
2018-05-06T13:04:40.183Z,101344.00
2018-05-06T13:06:34.136Z,80832.00
2018-05-06T13:07:33.746Z,82688.00
2018-05-06T13:09:28.796Z,79872.00
2018-05-06T13:10:28.334Z,80832.00
2018-05-06T13:12:22.360Z,62240.00
2018-05-06T13:13:21.932Z,67840.00
2018-05-06T13:15:16.931Z,89312.00
2018-05-06T13:16:16.489Z,66560.00
2018-05-06T13:18:10.433Z,59744.00
2018-05-06T13:19:10.453Z,67456.00
2018-05-06T13:21:05.125Z,87168.00
2018-05-06T13:22:04.696Z,79968.00
2018-05-06T13:24:12.931Z,71008.00
2018-05-06T13:25:12.464Z,64352.00
2018-05-06T13:27:07.583Z,60544.00
2018-05-06T13:28:07.074Z,70336.00
2018-05-06T13:30:01.048Z,67008.00
2018-05-06T13:31:00.671Z,77472.00
2018-05-06T13:32:55.671Z,70240.00
2018-05-06T13:33:55.203Z,74688.00
2018-05-06T13:35:49.242Z,77440.00
2018-05-06T13:36:49.083Z,70016.00
2018-05-06T13:38:43.819Z,72672.00
2018-05-06T13:39:43.376Z,67360.00
2018-05-06T13:41:37.421Z,81984.00
2018-05-06T13:42:37.293Z,76000.00
2018-05-06T13:44:30.458Z,61600.00
2018-05-06T13:45:29.996Z,65856.00
2018-05-06T13:47:25.022Z,66752.00
2018-05-06T13:48:24.955Z,66656.00
2018-05-06T13:50:18.727Z,61344.00
2018-05-06T13:51:18.460Z,55392.00
2018-05-06T13:53:11.633Z,58144.00
2018-05-06T13:54:11.254Z,63488.00
2018-05-06T13:56:04.704Z,61888.00
2018-05-06T13:57:04.291Z,64704.00
2018-05-06T13:58:57.780Z,72032.00
2018-05-06T13:59:57.349Z,64736.00
2018-05-06T14:01:50.879Z,71520.00
2018-05-06T14:02:50.406Z,62656.00
2018-05-06T14:04:44.389Z,57760.00
2018-05-06T14:05:43.426Z,60704.00
2018-05-06T14:07:37.471Z,53184.00
2018-05-06T14:08:36.953Z,62592.00
2018-05-06T14:10:30.011Z,58752.00
2018-05-06T14:11:29.891Z,51456.00
2018-05-06T14:13:23.603Z,53024.00
2018-05-06T14:14:23.150Z,59424.00
2018-05-06T14:16:16.620Z,63584.00
2018-05-06T14:17:16.273Z,58624.00
2018-05-06T14:19:11.212Z,54336.00
2018-05-06T14:20:10.773Z,49248.00
2018-05-06T14:22:04.318Z,47328.00
2018-05-06T14:23:03.830Z,48224.00
2018-05-06T14:24:57.313Z,49440.00
2018-05-06T14:25:56.949Z,54560.00
2018-05-06T14:27:50.444Z,59136.00
2018-05-06T14:28:49.979Z,49696.00
2018-05-06T14:30:43.467Z,61600.00
2018-05-06T14:31:43.042Z,65504.00
2018-05-06T14:33:36.466Z,47136.00
2018-05-06T14:34:36.032Z,50560.00
2018-05-06T14:36:29.455Z,47264.00
2018-05-06T14:37:29.076Z,47232.00
2018-05-06T14:39:22.390Z,45600.00
2018-05-06T14:40:21.958Z,44320.00
2018-05-06T14:42:15.476Z,42208.00
2018-05-06T14:43:14.969Z,35968.00
2018-05-06T14:45:08.412Z,49056.00
2018-05-06T14:46:07.997Z,47360.00
2018-05-06T14:48:02.028Z,39584.00
2018-05-06T14:49:01.116Z,49824.00
2018-05-06T14:50:54.491Z,52320.00
2018-05-06T14:51:54.095Z,46656.00
2018-05-06T14:53:49.021Z,46080.00
2018-05-06T14:54:48.625Z,44736.00
2018-05-06T14:56:42.085Z,42976.00
2018-05-06T14:57:42.040Z,42880.00
2018-05-06T14:59:35.161Z,47584.00
2018-05-06T15:00:34.677Z,49984.00
2018-05-06T15:02:28.172Z,44352.00
2018-05-06T15:03:28.197Z,36352.00
2018-05-06T15:05:21.281Z,37728.00
2018-05-06T15:06:21.205Z,46400.00
2018-05-06T15:08:14.235Z,40256.00
2018-05-06T15:09:13.851Z,32224.00
2018-05-06T15:11:07.408Z,34048.00
2018-05-06T15:12:07.317Z,32000.00
2018-05-06T15:14:00.442Z,34880.00
2018-05-06T15:14:59.992Z,35360.00
2018-05-06T15:16:53.443Z,35264.00
2018-05-06T15:17:53.046Z,32992.00
2018-05-06T15:19:46.498Z,33632.00
2018-05-06T15:20:46.063Z,33248.00
2018-05-06T15:22:39.591Z,32928.00
2018-05-06T15:23:39.180Z,35808.00
2018-05-06T15:25:32.616Z,51168.00
2018-05-06T15:26:32.199Z,57376.00
2018-05-06T15:28:27.195Z,78016.00
2018-05-06T15:29:26.714Z,77920.00
2018-05-06T15:31:20.203Z,71360.00
2018-05-06T15:32:19.760Z,68544.00
2018-05-06T15:34:13.807Z,75104.00
2018-05-06T15:35:13.208Z,73664.00
2018-05-06T15:37:06.352Z,68896.00
2018-05-06T15:38:05.865Z,67168.00
2018-05-06T15:39:59.390Z,73248.00
2018-05-06T15:40:59.415Z,72000.00
2018-05-06T15:42:52.915Z,67712.00
2018-05-06T15:43:52.881Z,71872.00
2018-05-06T15:45:46.577Z,72288.00
2018-05-06T15:46:46.034Z,67392.00
2018-05-06T15:48:39.551Z,62944.00
2018-05-06T15:49:39.586Z,57664.00
2018-05-06T15:51:32.606Z,58656.00
2018-05-06T15:52:32.192Z,57920.00
2018-05-06T15:54:25.628Z,63136.00
2018-05-06T15:55:25.544Z,62880.00
2018-05-06T15:57:18.769Z,60992.00
2018-05-06T15:58:18.287Z,53472.00
2018-05-06T16:00:12.340Z,41120.00
2018-05-06T16:01:12.259Z,34912.00
2018-05-06T16:03:06.785Z,24032.00
2018-05-06T16:04:06.347Z,9804.00
2018-05-06T16:05:59.811Z,8076.00
2018-05-06T16:06:59.756Z,8064.00
2018-05-06T16:08:53.473Z,8016.00
2018-05-06T16:09:52.929Z,9104.00
2018-05-06T16:11:46.934Z,10232.00
2018-05-06T16:12:46.525Z,9780.00
2018-05-06T16:14:40.640Z,14976.00
2018-05-06T16:15:39.618Z,16964.00
2018-05-06T16:17:33.672Z,9776.00
2018-05-06T16:18:32.668Z,12760.00
2018-05-06T16:20:26.192Z,17300.00
2018-05-06T16:21:25.703Z,13428.00
2018-05-06T16:23:19.597Z,10700.00
2018-05-06T16:24:19.159Z,16900.00
2018-05-06T16:26:12.237Z,27072.00
2018-05-06T16:27:11.842Z,22432.00
2018-05-06T16:29:05.347Z,29376.00
2018-05-06T16:30:04.906Z,26304.00
2018-05-06T16:31:59.411Z,10168.00
2018-05-06T16:32:58.858Z,8036.00
2018-05-06T16:34:53.428Z,7836.00
2018-05-06T16:35:53.057Z,10180.00
2018-05-06T16:37:46.486Z,9976.00
2018-05-06T16:38:46.017Z,9328.00
2018-05-06T16:40:40.572Z,14536.00
2018-05-06T16:41:39.569Z,8072.00
2018-05-06T16:43:33.133Z,7408.00
2018-05-06T16:44:32.684Z,7040.00
2018-05-06T16:46:27.647Z,6892.00
2018-05-06T16:47:27.230Z,6840.00
2018-05-06T16:49:20.792Z,6796.00
2018-05-06T16:50:20.340Z,6780.00
2018-05-06T16:52:14.330Z,6688.00
2018-05-06T16:53:13.338Z,6624.00
2018-05-06T16:55:06.866Z,6572.00
2018-05-06T16:56:06.774Z,6544.00
2018-05-06T16:58:00.059Z,6472.00
2018-05-06T16:58:59.428Z,6440.00
2018-05-06T17:00:53.020Z,6364.00
2018-05-06T17:01:53.500Z,6324.00
2018-05-06T17:03:47.574Z,6260.00
2018-05-06T17:04:46.076Z,6236.00
2018-05-06T17:06:40.116Z,6200.00
2018-05-06T17:07:39.450Z,6172.00
2018-05-06T17:09:34.088Z,6112.00
2018-05-06T17:10:33.714Z,6084.00
2018-05-06T17:12:27.151Z,6012.00
2018-05-06T17:13:26.642Z,5976.00
2018-05-06T17:15:20.031Z,5892.00
2018-05-06T17:16:19.992Z,5864.00
2018-05-06T17:18:13.076Z,5776.00
2018-05-06T17:19:13.034Z,5736.00
2018-05-06T17:21:06.121Z,5652.00
2018-05-06T17:22:05.995Z,5620.00
2018-05-06T17:23:59.025Z,5548.00
2018-05-06T17:24:58.888Z,5508.00
2018-05-06T17:26:52.365Z,5412.00
2018-05-06T17:27:51.964Z,5356.00
2018-05-06T17:29:45.441Z,5264.00
2018-05-06T17:30:44.923Z,5224.00
2018-05-06T17:32:38.314Z,5156.00
2018-05-06T17:33:38.241Z,5120.00
2018-05-06T17:35:31.310Z,5048.00
2018-05-06T17:36:30.772Z,5004.00
2018-05-06T17:38:24.344Z,4928.00
2018-05-06T17:39:24.258Z,4888.00
2018-05-06T17:41:17.282Z,4804.00
2018-05-06T17:42:16.808Z,4748.00
2018-05-06T17:44:10.204Z,4648.00
2018-05-06T17:45:09.755Z,4600.00
2018-05-06T17:47:03.271Z,4500.00
2018-05-06T17:48:02.723Z,4428.00
2018-05-06T17:49:56.224Z,4320.00
2018-05-06T17:50:55.772Z,4252.00
2018-05-06T17:52:49.297Z,4144.00
2018-05-06T17:53:48.695Z,4080.00
2018-05-06T17:55:43.751Z,3956.00
2018-05-06T17:56:43.260Z,3892.00
2018-05-06T17:58:36.695Z,3760.00
2018-05-06T17:59:36.204Z,3688.00
2018-05-06T18:01:30.263Z,3556.00
2018-05-06T18:02:29.261Z,3484.00
2018-05-06T18:04:23.263Z,3344.00
2018-05-06T18:05:23.113Z,3272.00
2018-05-06T18:07:16.160Z,3136.00
2018-05-06T18:08:15.673Z,3056.00
2018-05-06T18:10:09.603Z,2912.00
2018-05-06T18:11:08.618Z,2840.00
2018-05-06T18:13:02.057Z,2688.00
2018-05-06T18:14:01.552Z,2612.00
2018-05-06T18:15:55.048Z,2460.00
2018-05-06T18:16:54.589Z,2380.00
2018-05-06T18:18:47.904Z,2220.00
2018-05-06T18:19:47.570Z,2136.00
2018-05-06T18:21:41.031Z,1980.00
2018-05-06T18:22:41.305Z,1896.00
2018-05-06T18:24:34.599Z,1744.00
2018-05-06T18:25:33.991Z,1664.00
2018-05-06T18:27:27.495Z,1512.00
2018-05-06T18:28:27.637Z,1436.00
2018-05-06T18:30:20.989Z,1296.00
2018-05-06T18:31:20.912Z,1224.00
2018-05-06T18:33:14.109Z,1092.00
2018-05-06T18:34:13.582Z,1024.00
2018-05-06T18:36:07.082Z,904.00
2018-05-06T18:37:06.676Z,840.00
2018-05-06T18:39:02.119Z,728.00
2018-05-06T18:40:01.217Z,676.00
2018-05-06T18:41:54.648Z,584.00
2018-05-06T18:42:54.184Z,532.00
2018-05-06T18:44:47.790Z,452.00
2018-05-06T18:45:47.690Z,412.00
2018-05-06T18:47:40.711Z,344.00
2018-05-06T18:48:40.306Z,312.00
2018-05-06T18:50:33.802Z,256.00
2018-05-06T18:51:33.444Z,228.00
2018-05-06T18:53:26.785Z,184.00
2018-05-06T18:54:26.403Z,164.00
2018-05-06T18:57:19.584Z,112.00
2018-05-06T18:59:13.029Z,88.00
2018-05-06T19:00:12.937Z,76.00
2018-05-06T19:02:07.487Z,60.00
2018-05-06T19:03:06.988Z,52.00
2018-05-06T19:05:00.498Z,40.00
2018-05-06T19:06:00.043Z,32.00
2018-05-06T19:07:53.619Z,24.00
2018-05-06T19:08:53.536Z,20.00
2018-05-06T19:10:46.641Z,16.00
2018-05-06T19:11:46.640Z,12.00
2018-05-06T19:13:39.665Z,12.00
2018-05-06T19:14:39.582Z,8.00
2018-05-06T19:16:32.641Z,8.00
2018-05-06T19:17:32.578Z,4.00
2018-05-06T19:19:25.769Z,4.00
2018-05-06T19:20:25.700Z,4.00
2018-05-06T19:22:18.781Z,0.00
2018-05-06T19:23:18.714Z,0.00
2018-05-06T19:25:11.807Z,4.00
2018-05-06T19:26:11.435Z,0.00
2018-05-06T19:28:04.916Z,0.00
2018-05-06T19:29:04.393Z,0.00
2018-05-06T19:30:58.041Z,0.00
2018-05-06T19:31:57.472Z,0.00
2018-05-06T19:33:50.992Z,0.00
2018-05-06T19:34:50.927Z,0.00
2018-05-06T19:36:43.967Z,0.00
2018-05-06T19:37:43.579Z,0.00
2018-05-06T19:39:38.482Z,0.00
2018-05-06T19:40:37.986Z,0.00
2018-05-06T19:42:31.520Z,0.00
2018-05-06T19:43:30.927Z,0.00
2018-05-06T19:45:24.309Z,0.00
2018-05-06T19:46:23.895Z,0.00
2018-05-06T19:48:17.334Z,0.00
2018-05-06T19:49:16.796Z,0.00
2018-05-06T19:51:10.372Z,0.00
2018-05-06T19:52:10.355Z,0.00
2018-05-06T19:54:03.328Z,0.00
2018-05-06T19:55:02.849Z,0.00
2018-05-06T19:56:56.212Z,0.00
2018-05-06T19:57:55.781Z,0.00
2018-05-06T19:59:49.269Z,0.00
2018-05-06T20:00:49.136Z,0.00
2018-05-06T20:02:42.129Z,0.00
2018-05-06T20:03:41.724Z,0.00
2018-05-06T20:05:35.105Z,0.00
2018-05-06T20:06:35.092Z,0.00
2018-05-06T20:08:29.629Z,0.00
2018-05-06T20:09:29.161Z,0.00
2018-05-06T20:11:22.615Z,0.00
2018-05-06T20:12:22.518Z,0.00
2018-05-06T20:14:15.478Z,0.00
2018-05-06T20:15:15.103Z,0.00
2018-05-06T20:17:08.476Z,0.00
2018-05-06T20:18:08.050Z,0.00
2018-05-06T20:20:01.468Z,0.00
2018-05-06T20:21:00.924Z,0.00
2018-05-06T20:22:54.416Z,0.00
2018-05-06T20:23:53.921Z,0.00
2018-05-06T20:25:48.949Z,0.00
2018-05-06T20:26:49.084Z,0.00
2018-05-06T20:28:41.853Z,0.00
2018-05-06T20:29:41.375Z,0.00
2018-05-06T20:31:35.200Z,0.00
2018-05-06T20:32:34.291Z,0.00
2018-05-06T20:34:27.824Z,0.00
2018-05-06T20:35:27.236Z,0.00
2018-05-06T20:37:20.734Z,0.00
2018-05-06T20:38:20.721Z,0.00
2018-05-06T20:40:25.839Z,0.00
2018-05-06T20:41:25.332Z,0.00
2018-05-06T20:43:18.772Z,0.00
2018-05-06T20:44:18.284Z,0.00
2018-05-06T20:46:11.766Z,0.00
2018-05-06T20:47:11.645Z,0.00
2018-05-06T20:49:06.261Z,0.00
2018-05-06T20:50:06.694Z,0.00
2018-05-06T20:51:59.192Z,0.00
2018-05-06T20:52:59.182Z,0.00
2018-05-06T20:54:52.103Z,0.00
2018-05-06T20:55:51.706Z,0.00
2018-05-06T20:57:45.126Z,0.00
2018-05-06T20:58:44.632Z,0.00
2018-05-06T21:00:38.015Z,0.00
2018-05-06T21:01:38.005Z,0.00
2018-05-06T21:03:43.236Z,0.00
2018-05-06T21:04:42.717Z,0.00
2018-05-06T21:06:36.169Z,0.00
2018-05-06T21:07:35.643Z,0.00
2018-05-06T21:09:29.145Z,0.00
2018-05-06T21:10:28.694Z,0.00
2018-05-06T21:12:23.632Z,0.00
2018-05-06T21:13:23.102Z,0.00
2018-05-06T21:15:16.583Z,0.00
2018-05-06T21:16:16.507Z,0.00
2018-05-06T21:18:09.531Z,0.00
2018-05-06T21:19:09.548Z,0.00
2018-05-06T21:21:02.447Z,0.00
2018-05-06T21:22:02.001Z,0.00
2018-05-06T21:23:55.408Z,0.00
2018-05-06T21:24:54.956Z,0.00
2018-05-06T21:26:48.395Z,0.00
2018-05-06T21:27:47.985Z,0.00
2018-05-06T21:29:42.912Z,0.00
2018-05-06T21:30:42.405Z,0.00
2018-05-06T21:32:35.861Z,0.00
2018-05-06T21:33:35.319Z,0.00
2018-05-06T21:35:28.887Z,0.00
2018-05-06T21:36:28.821Z,0.00
2018-05-06T21:38:21.831Z,0.00
2018-05-06T21:39:21.801Z,0.00
2018-05-06T21:41:14.789Z,0.00
2018-05-06T21:42:14.309Z,0.00
2018-05-06T21:44:07.803Z,0.00
2018-05-06T21:45:07.670Z,0.00
2018-05-06T21:47:00.667Z,0.00
2018-05-06T21:48:00.669Z,0.00
2018-05-06T21:49:53.643Z,0.00
2018-05-06T21:50:53.198Z,0.00
2018-05-06T21:52:48.157Z,0.00
2018-05-06T21:53:47.673Z,0.00
2018-05-06T21:55:41.135Z,0.00
2018-05-06T21:56:41.038Z,0.00
2018-05-06T21:58:34.533Z,0.00
2018-05-06T21:59:33.540Z,0.00
2018-05-06T22:01:27.056Z,0.00
2018-05-06T22:02:26.555Z,0.00
2018-05-06T22:04:19.942Z,0.00
2018-05-06T22:05:19.530Z,0.00
2018-05-06T22:07:12.939Z,0.00
2018-05-06T22:08:12.458Z,0.00
2018-05-06T22:10:07.357Z,0.00
2018-05-06T22:11:06.946Z,0.00
2018-05-06T22:13:00.380Z,0.00
2018-05-06T22:13:59.923Z,0.00
2018-05-06T22:15:53.307Z,0.00
2018-05-06T22:16:52.782Z,0.00
2018-05-06T22:18:46.311Z,0.00
2018-05-06T22:19:45.778Z,0.00
2018-05-06T22:21:39.517Z,0.00
2018-05-06T22:22:39.705Z,0.00
2018-05-06T22:24:32.660Z,0.00
2018-05-06T22:25:32.493Z,0.00
2018-05-06T22:27:27.186Z,0.00
2018-05-06T22:28:27.080Z,0.00
2018-05-06T22:30:20.124Z,0.00
2018-05-06T22:31:19.150Z,0.00
2018-05-06T22:33:12.596Z,0.00
2018-05-06T22:34:12.159Z,0.00
2018-05-06T22:36:05.565Z,0.00
2018-05-06T22:37:05.486Z,0.00
2018-05-06T22:38:59.023Z,0.00
2018-05-06T22:39:58.019Z,0.00
2018-05-06T22:41:51.478Z,0.00
2018-05-06T22:42:51.042Z,0.00
2018-05-06T22:44:45.876Z,0.00
2018-05-06T22:45:45.459Z,0.00
2018-05-06T22:47:56.206Z,0.00
2018-05-06T22:48:57.050Z,0.00
2018-05-06T22:50:49.172Z,0.00
2018-05-06T22:51:49.515Z,0.00
2018-05-06T22:53:44.033Z,0.00
2018-05-06T22:54:44.403Z,0.00
2018-05-06T22:56:36.993Z,0.00
2018-05-06T22:57:36.956Z,0.00
2018-05-06T22:59:30.091Z,0.00
2018-05-06T23:00:29.481Z,0.00
2018-05-06T23:02:22.914Z,0.00
2018-05-06T23:03:22.489Z,0.00
2018-05-06T23:05:15.830Z,0.00
2018-05-06T23:06:15.418Z,0.00
2018-05-06T23:08:09.330Z,0.00
2018-05-06T23:09:08.347Z,0.00
2018-05-06T23:11:02.317Z,0.00
2018-05-06T23:12:01.317Z,0.00
2018-05-06T23:13:56.824Z,0.00
2018-05-06T23:14:55.885Z,0.00
2018-05-06T23:16:49.517Z,0.00
2018-05-06T23:17:48.789Z,0.00
2018-05-06T23:19:42.228Z,0.00
2018-05-06T23:20:41.756Z,0.00
2018-05-06T23:22:35.188Z,0.00
2018-05-06T23:23:34.727Z,0.00
2018-05-06T23:25:28.124Z,0.00
2018-05-06T23:26:27.755Z,0.00
2018-05-06T23:28:21.077Z,0.00
2018-05-06T23:29:20.716Z,0.00
2018-05-06T23:31:14.108Z,0.00
2018-05-06T23:32:14.007Z,0.00
2018-05-06T23:34:08.551Z,0.00